Douglas, Alabama
Current Conditions -  °F | °C
As of 10:55 AM on Monday 22 Dec 2014 (Local Time) from K8A0 Reporting Station
Haze Haze  
Wind Chill: 44°   Ceiling: 300
Heat Index: 46°   Visibility: 3mi
Dew Point: 46°   Wind: 6mph
Humidity: 100%   Direction: 120°ESE
Pressure: 29.91"   Gusts: NA
Location:  34.17°N, 86.32°W
Report Text: K8A0 221655Z AUTO 12005KT 099V159 3SM BR OVC003 08/08 A2991 RMK AO2
Loading
Personal Weather Stations






























Interactive Weather Map New forecast layout! Learn more

10-Day Weather Forecast

Advertisements
Track Severe Weather on mobile